| Temperature (°F) | Max | Average | Min |
|---|---|---|---|
| Max Temperature | 85 | 68.97 | 60 |
| Avg Temperature | 68.13 | 59.99 | 54.48 |
| Min Temperature | 56 | 51.87 | 47 |
| Dew Point (°F) | Max | Average | Min |
|---|---|---|---|
| Dew Point | 59 | 45.9 | 15 |
| Precipitation (in) | Max | Average | Min | Sum |
|---|---|---|---|---|
| Precipitation | 0.86 | 0.06 | 0.00 | 1.98 |
| Snowdepth | 0.00 | 0.00 | 0.00 | 0.00 |
| Wind (mph) | Max | Average | Min |
|---|---|---|---|
| Wind | 21 | 5.24 | 0 |
| Gust Wind | 26 | 0.76 | 0 |
| Sea Level Pressure (in) | Max | Average | Min |
|---|---|---|---|
| Sea Level Pressure | 30.16 | 29.98 | 29.68 |
| Date | Temperature (°F) | Dew Point (°F) | Humidity (%) | Wind Speed (mph) | Pressure (in) | Precipitation (in) | ||||||||||
|---|---|---|---|---|---|---|---|---|---|---|---|---|---|---|---|---|
| Max | Avg | Min | Max | Avg | Min | Max | Avg | Min | Max | Avg | Min | Max | Avg | Min | ||
| 3/31/2019 | 84 | 68.1 | 54 | 44 | 39.4 | 27 | 64 | 39.0 | 13 | 16 | 3.7 | 0 | 30.0 | 29.9 | 29.9 | 0.00 |
| 3/30/2019 | 82 | 65.7 | 52 | 52 | 43.5 | 37 | 81 | 49.6 | 21 | 16 | 4.2 | 0 | 30.0 | 30.0 | 29.9 | 0.00 |
| 3/29/2019 | 72 | 61.1 | 52 | 52 | 46.5 | 37 | 83 | 61.7 | 30 | 17 | 5.7 | 0 | 30.1 | 30.1 | 30.0 | 0.00 |
| 3/28/2019 | 70 | 62.0 | 55 | 54 | 49.6 | 42 | 87 | 65.9 | 40 | 16 | 6.6 | 0 | 30.2 | 30.1 | 30.1 | 0.00 |
| 3/27/2019 | 72 | 61.7 | 56 | 55 | 52.7 | 50 | 87 | 73.5 | 48 | 14 | 6.1 | 0 | 30.1 | 30.0 | 30.0 | 0.00 |
| 3/26/2019 | 73 | 60.7 | 50 | 53 | 47.8 | 42 | 81 | 64.5 | 34 | 12 | 4.6 | 0 | 30.0 | 30.0 | 29.9 | 0.00 |
| 3/25/2019 | 77 | 61.5 | 51 | 51 | 47.6 | 42 | 86 | 62.5 | 37 | 17 | 6.1 | 0 | 30.1 | 30.0 | 30.0 | 0.00 |
| 3/24/2019 | 70 | 61.1 | 54 | 53 | 50.4 | 48 | 87 | 68.8 | 49 | 12 | 4.2 | 0 | 30.1 | 30.1 | 30.1 | 0.00 |
| 3/23/2019 | 67 | 59.5 | 54 | 53 | 49.9 | 46 | 83 | 71.2 | 51 | 12 | 3.8 | 0 | 30.1 | 30.1 | 30.1 | 0.00 |
| 3/22/2019 | 65 | 57.2 | 49 | 49 | 47.4 | 45 | 86 | 70.8 | 50 | 12 | 4.1 | 0 | 30.1 | 30.1 | 30.1 | 0.08 |
| 3/21/2019 | 61 | 56.6 | 52 | 49 | 47.1 | 44 | 77 | 70.8 | 60 | 10 | 5.1 | 0 | 30.1 | 30.1 | 30.0 | 0.00 |
| 3/20/2019 | 66 | 61.0 | 56 | 53 | 50.4 | 46 | 81 | 68.9 | 54 | 16 | 7.8 | 0 | 30.0 | 30.0 | 29.9 | 0.00 |
| 3/19/2019 | 63 | 57.6 | 54 | 53 | 52.6 | 52 | 97 | 84.2 | 67 | 12 | 5.1 | 0 | 30.0 | 29.9 | 29.9 | 0.00 |
| 3/18/2019 | 72 | 61.4 | 55 | 55 | 50.7 | 42 | 94 | 70.9 | 35 | 9 | 3.9 | 0 | 29.9 | 29.9 | 29.9 | 0.00 |
| 3/17/2019 | 85 | 68.0 | 54 | 57 | 39.7 | 30 | 87 | 42.0 | 15 | 14 | 5.1 | 0 | 30.0 | 29.9 | 29.9 | 0.00 |
| 3/16/2019 | 81 | 66.1 | 50 | 43 | 30.6 | 22 | 54 | 30.4 | 13 | 13 | 3.8 | 0 | 30.0 | 29.9 | 29.9 | 0.00 |
| 3/15/2019 | 78 | 63.0 | 47 | 41 | 27.0 | 18 | 54 | 29.4 | 11 | 9 | 3.5 | 0 | 30.1 | 30.0 | 29.9 | 0.00 |
| 3/14/2019 | 73 | 60.4 | 47 | 43 | 27.2 | 15 | 74 | 35.4 | 12 | 20 | 6.5 | 0 | 30.1 | 30.1 | 30.0 | 0.00 |
| 3/13/2019 | 65 | 57.0 | 50 | 47 | 44.2 | 33 | 86 | 64.4 | 35 | 10 | 3.9 | 0 | 30.1 | 29.9 | 29.8 | 0.00 |
| 3/12/2019 | 70 | 59.6 | 53 | 50 | 47.6 | 37 | 86 | 66.1 | 31 | 15 | 7.4 | 0 | 29.7 | 29.7 | 29.7 | 0.02 |
| 3/11/2019 | 68 | 57.5 | 48 | 49 | 42.5 | 35 | 83 | 60.4 | 30 | 12 | 4.0 | 0 | 29.9 | 29.8 | 29.7 | 0.00 |
| 3/10/2019 | 61 | 54.5 | 48 | 46 | 42.6 | 40 | 80 | 65.0 | 47 | 10 | 4.0 | 0 | 29.9 | 29.9 | 29.9 | 0.00 |
| 3/9/2019 | 60 | 54.8 | 49 | 46 | 42.2 | 36 | 83 | 63.8 | 41 | 14 | 6.2 | 0 | 30.0 | 30.0 | 29.9 | 0.00 |
| 3/8/2019 | 62 | 55.1 | 48 | 45 | 41.9 | 35 | 83 | 62.5 | 39 | 17 | 9.0 | 0 | 30.0 | 30.0 | 29.9 | 0.01 |
| 3/7/2019 | 61 | 57.3 | 49 | 55 | 48.4 | 42 | 94 | 73.6 | 50 | 14 | 6.1 | 0 | 30.0 | 30.0 | 29.9 | 0.86 |
| 3/6/2019 | 63 | 58.9 | 52 | 57 | 55.5 | 51 | 94 | 88.7 | 78 | 17 | 6.9 | 0 | 30.0 | 29.9 | 29.8 | 0.11 |
| 3/5/2019 | 61 | 56.9 | 56 | 54 | 48.6 | 45 | 89 | 74.9 | 56 | 21 | 4.0 | 0 | 30.0 | 29.9 | 29.8 | 0.00 |
| 3/4/2019 | 66 | 57.5 | 48 | 51 | 48.3 | 44 | 86 | 72.2 | 52 | 12 | 5.0 | 0 | 30.0 | 30.0 | 30.0 | 0.05 |
| 3/3/2019 | 63 | 58.9 | 53 | 55 | 52.9 | 49 | 90 | 81.0 | 65 | 10 | 5.2 | 0 | 30.1 | 30.0 | 30.0 | 0.68 |
| 3/2/2019 | 64 | 58.8 | 56 | 59 | 55.9 | 53 | 94 | 90.4 | 82 | 13 | 6.9 | 0 | 30.0 | 30.0 | 29.9 | 0.17 |
| 3/1/2019 | 63 | 60.3 | 56 | 54 | 52.3 | 50 | 87 | 75.7 | 63 | 9 | 4.1 | 0 | 30.1 | 30.0 | 30.0 | 0.00 |